Time;durP1;ratioP1;P1;durP2;ratioP2;P2;SDS_P1;SDS_P2;PMS_P1;PMS_P2;Temp;Humidity;BMP_temperature;BMP_pressure;BME280_temperature;BME280_humidity;BME280_pressure;Samples;Min_cycle;Max_cycle;Signal;HPM_P1;HPM_P2
2022/02/12 00:03:50;;;;;;;12.50;7.07;;;;;;;2.05;100.00;101322.84;15277855;19;20614;-48
2022/02/12 00:08:55;;;;;;;11.00;6.97;;;;;;;2.05;100.00;101328.97;15247789;19;20138;-49
2022/02/12 00:13:59;;;;;;;9.83;6.50;;;;;;;2.03;100.00;101349.19;15266870;19;20138;-51
2022/02/12 00:19:04;;;;;;;9.00;5.77;;;;;;;1.97;100.00;101358.91;15275301;19;20683;-52
2022/02/12 00:24:09;;;;;;;11.53;5.27;;;;;;;1.95;100.00;101373.84;15278296;19;20143;-48
2022/02/12 00:29:13;;;;;;;6.97;3.63;;;;;;;1.79;100.00;101426.69;15258919;19;20224;-48
2022/02/12 00:34:17;;;;;;;4.83;3.47;;;;;;;1.82;100.00;101420.50;15252923;19;20292;-51
2022/02/12 00:39:22;;;;;;;8.87;3.13;;;;;;;1.76;100.00;101431.97;15276005;19;20656;-48
2022/02/12 00:44:26;;;;;;;4.83;3.20;;;;;;;1.72;100.00;101438.16;15275933;19;20186;-50
2022/02/12 00:49:31;;;;;;;4.07;2.50;;;;;;;1.76;100.00;101439.88;15271901;19;20229;-47
2022/02/12 00:54:37;;;;;;;3.47;2.10;;;;;;;1.67;100.00;101449.63;15243148;19;20169;-47
2022/02/12 00:59:42;;;;;;;3.43;2.20;;;;;;;1.69;100.00;101459.22;15263551;19;20155;-51
2022/02/12 01:04:47;;;;;;;3.00;1.90;;;;;;;1.56;100.00;101468.13;15276110;19;20157;-49
2022/02/12 01:09:51;;;;;;;5.37;2.40;;;;;;;1.44;100.00;101484.03;15273887;19;20141;-49
2022/02/12 01:14:56;;;;;;;2.60;2.20;;;;;;;1.25;100.00;101492.94;15246694;19;20167;-51
2022/02/12 01:20:01;;;;;;;4.67;2.50;;;;;;;1.02;100.00;101486.09;15253460;19;20152;-50
2022/02/12 01:25:06;;;;;;;4.43;2.50;;;;;;;0.92;100.00;101499.28;15274080;19;20152;-49
2022/02/12 01:30:11;;;;;;;4.23;2.40;;;;;;;1.14;100.00;101514.03;15271488;19;20149;-50
2022/02/12 01:35:16;;;;;;;4.07;2.60;;;;;;;1.32;100.00;101534.09;15264264;19;20268;-50
2022/02/12 01:40:24;;;;;;;2.70;2.40;;;;;;;1.32;100.00;101532.34;15242624;19;20151;-50
2022/02/12 01:45:29;;;;;;;4.70;2.70;;;;;;;1.30;100.00;101538.47;15267767;19;20165;-47
2022/02/12 01:50:34;;;;;;;6.60;3.03;;;;;;;1.27;100.00;101564.78;15271857;19;20217;-51
2022/02/12 01:55:39;;;;;;;3.27;2.30;;;;;;;1.27;100.00;101580.56;15272085;19;20158;-48
2022/02/12 02:00:44;;;;;;;4.13;2.73;;;;;;;1.30;100.00;101570.91;15241341;19;20187;-48
2022/02/12 02:05:48;;;;;;;4.30;2.90;;;;;;;1.32;100.00;101584.06;15257610;19;20503;-52
2022/02/12 02:10:54;;;;;;;6.53;2.70;;;;;;;1.31;100.00;101584.94;15269192;19;20589;-50
2022/02/12 02:15:59;;;;;;;5.10;2.90;;;;;;;1.23;100.00;101605.13;15270992;19;20147;-49
2022/02/12 02:21:03;;;;;;;3.03;2.70;;;;;;;1.22;100.00;101619.16;15252878;19;20187;-49
2022/02/12 02:26:09;;;;;;;3.80;2.70;;;;;;;1.02;100.00;101628.00;15246119;19;20165;-51
2022/02/12 02:31:13;;;;;;;5.90;3.03;;;;;;;0.81;100.00;101635.09;15285438;19;20227;-47
2022/02/12 02:36:18;;;;;;;3.93;3.03;;;;;;;0.65;100.00;101648.28;15286580;19;20166;-47
2022/02/12 02:41:22;;;;;;;7.30;3.43;;;;;;;0.51;100.00;101662.31;15278588;19;20149;-52
2022/02/12 02:46:27;;;;;;;5.07;3.23;;;;;;;0.43;100.00;101664.09;15252094;19;20177;-48
2022/02/12 03:01:52;;;;;;;7.13;3.77;;;;;;;0.11;100.00;101696.50;15327747;19;20544;-51
2022/02/12 03:06:57;;;;;;;4.50;3.83;;;;;;;0.06;100.00;101718.34;15362465;19;20280;-49
2022/02/12 03:12:01;;;;;;;3.47;3.17;;;;;;;-0.06;100.00;101725.31;15364510;19;20156;-50
2022/02/12 03:17:06;;;;;;;7.23;3.80;;;;;;;-0.13;100.00;101739.31;15365166;19;20815;-50
2022/02/12 03:22:12;;;;;;;4.77;3.37;;;;;;;-0.17;100.00;101741.91;15364563;19;20144;-48
2022/02/12 03:27:16;;;;;;;6.77;3.53;;;;;;;-0.23;100.00;101760.25;15356491;19;20172;-50
2022/02/12 03:32:21;;;;;;;5.47;3.70;;;;;;;-0.30;100.00;101771.59;15355775;19;20128;-50
2022/02/12 03:37:27;;;;;;;4.60;2.97;;;;;;;-0.34;100.00;101775.06;15312625;19;20160;-52
2022/02/12 03:42:32;;;;;;;3.80;2.73;;;;;;;-0.39;100.00;101783.84;15324088;19;20176;-51
2022/02/12 03:47:37;;;;;;;4.63;2.90;;;;;;;-0.48;100.00;101794.25;15342719;19;20218;-49
2022/02/12 03:52:41;;;;;;;4.70;2.80;;;;;;;-0.53;100.00;101800.38;15341163;19;20555;-48
2022/02/12 04:02:44;;;;;;;6.10;2.50;;;;;;;-0.66;100.00;101804.66;15310057;19;20474;-49
2022/02/12 04:12:48;;;;;;;3.70;2.60;;;;;;;-0.77;100.00;101812.47;15340432;19;21285;-50
2022/02/12 04:17:52;;;;;;;4.80;2.40;;;;;;;-0.82;100.00;101829.91;15345724;19;20598;-49
2022/02/12 04:22:57;;;;;;;3.70;2.47;;;;;;;-0.86;100.00;101853.47;15313774;19;20174;-51
2022/02/12 04:28:09;;;;;;;5.63;3.03;;;;;;;-0.88;100.00;101847.34;15329879;19;20183;-49
2022/02/12 04:33:13;;;;;;;5.67;2.80;;;;;;;-0.87;100.00;101851.72;15342920;19;20219;-51
2022/02/12 04:43:16;;;;;;;4.27;3.27;;;;;;;-0.89;100.00;101871.78;15323414;19;20498;-52
2022/02/12 04:48:20;;;;;;;5.13;3.20;;;;;;;-0.90;100.00;101870.03;15320158;19;20140;-51
2022/02/12 04:53:25;;;;;;;6.10;2.87;;;;;;;-0.85;100.00;101876.19;15345276;19;20598;-50
2022/02/12 04:58:30;;;;;;;5.63;3.07;;;;;;;-0.86;100.00;101879.69;15342626;19;20136;-49
2022/02/12 05:03:34;;;;;;;4.07;3.00;;;;;;;-0.88;100.00;101881.41;15336919;19;20576;-48
2022/02/12 05:08:40;;;;;;;7.00;2.67;;;;;;;-0.91;100.00;101886.63;15310698;19;20629;-50
2022/02/12 05:13:44;;;;;;;9.17;4.23;;;;;;;-0.94;100.00;101897.06;15337658;19;20152;-47
2022/02/12 05:23:47;;;;;;;6.20;2.67;;;;;;;-1.04;100.00;101921.44;15343384;19;20455;-46
2022/02/12 05:28:52;;;;;;;6.80;2.80;;;;;;;-1.03;100.00;101933.69;15326414;19;20267;-49
2022/02/12 05:33:56;;;;;;;3.60;2.67;;;;;;;-1.03;100.00;101945.03;15328272;19;20503;-48
2022/02/12 05:39:02;;;;;;;4.83;3.00;;;;;;;-1.05;100.00;101941.53;15347161;19;20140;-47
2022/02/12 05:44:09;;;;;;;7.60;3.20;;;;;;;-1.03;100.00;101957.25;15346798;19;20167;-49
2022/02/12 05:54:11;;;;;;;5.53;3.90;;;;;;;-0.38;100.00;101949.94;15314742;19;20638;-48
2022/02/12 05:59:18;;;;;;;7.77;3.93;;;;;;;-0.23;100.00;101964.88;15343032;19;20175;-47
2022/02/12 06:04:23;;;;;;;8.40;5.23;;;;;;;-0.24;100.00;101978.88;15347327;19;20507;-50
2022/02/12 06:09:27;;;;;;;7.57;4.20;;;;;;;-0.38;100.00;101984.91;15347173;19;20367;-51
2022/02/12 06:14:32;;;;;;;5.63;3.20;;;;;;;-0.40;100.00;101991.00;15317167;19;20193;-47
2022/02/12 06:19:36;;;;;;;6.87;3.37;;;;;;;-0.33;100.00;101991.91;15329115;19;20171;-49
2022/02/12 06:24:41;;;;;;;6.07;2.90;;;;;;;-0.34;100.00;101992.78;15347257;19;20172;-48
2022/02/12 06:29:45;;;;;;;5.27;2.83;;;;;;;-0.39;100.00;101988.41;15345808;19;20589;-49
2022/02/12 06:34:51;;;;;;;7.43;3.37;;;;;;;-0.43;100.00;101993.59;15333187;19;20169;-51
2022/02/12 06:39:55;;;;;;;4.97;2.83;;;;;;;-0.46;100.00;101986.56;15320378;19;20140;-49
2022/02/12 06:44:59;;;;;;;5.07;3.13;;;;;;;-0.42;100.00;102003.22;15344080;19;20137;-47
2022/02/12 06:50:05;;;;;;;4.53;2.70;;;;;;;-0.39;100.00;102013.75;15343093;19;20193;-51
2022/02/12 06:55:11;;;;;;;5.93;3.13;;;;;;;-0.34;100.00;102021.63;15344498;19;20170;-50
2022/02/12 07:00:16;;;;;;;9.17;4.23;;;;;;;-0.30;100.00;102036.53;15313886;19;20170;-50
2022/02/12 07:10:21;;;;;;;8.70;4.53;;;;;;;-0.19;100.00;102046.22;15342445;19;20611;-49
2022/02/12 07:30:17;;;;;;;8.10;3.07;;;;;;;0.13;100.00;102093.69;15336149;19;20494;-50
2022/02/12 07:35:22;;;;;;;5.77;4.03;;;;;;;0.15;100.00;102084.09;15313465;19;20156;-52
2022/02/12 07:40:27;;;;;;;8.50;4.27;;;;;;;0.18;100.00;102093.72;15052143;19;20775;-50
2022/02/12 07:45:32;;;;;;;6.47;4.07;;;;;;;0.29;100.00;102100.81;15280041;19;20703;-49
2022/02/12 07:50:37;;;;;;;6.87;4.33;;;;;;;0.39;100.00;102111.38;15331162;19;20144;-50
2022/02/12 07:55:42;;;;;;;7.93;5.33;;;;;;;0.43;100.00;102123.66;15339450;19;21140;-49
2022/02/12 08:00:46;;;;;;;5.53;4.40;;;;;;;0.49;100.00;102124.56;15340331;19;20741;-49
2022/02/12 08:05:51;;;;;;;8.60;4.07;;;;;;;0.58;100.00;102129.88;15320861;19;21045;-49
2022/02/12 08:26:05;;;;;;;6.57;4.57;;;;;;;0.97;100.00;102155.47;15184003;19;2879563;-49
2022/02/12 08:31:09;;;;;;;8.20;5.07;;;;;;;1.05;100.00;102164.28;15320226;19;20136;-49
2022/02/12 08:36:14;;;;;;;7.43;5.03;;;;;;;1.12;100.00;102186.19;15337876;19;20152;-50
2022/02/12 08:41:19;;;;;;;7.83;5.27;;;;;;;1.16;100.00;102185.34;15344087;19;20145;-49
2022/02/12 08:46:23;;;;;;;8.73;5.43;;;;;;;1.29;100.00;102199.44;15348626;19;20179;-49
2022/02/12 08:51:28;;;;;;;9.67;6.30;;;;;;;1.36;100.00;102201.19;15324722;19;20144;-49
2022/02/12 08:56:32;;;;;;;10.93;7.17;;;;;;;1.36;100.00;102211.72;15330319;19;20153;-51
2022/02/12 09:01:40;;;;;;;12.80;8.90;;;;;;;1.40;100.00;102210.88;15339123;19;20243;-51
2022/02/12 09:06:44;;;;;;;12.00;7.60;;;;;;;1.56;100.00;102212.69;15342506;19;20152;-52
2022/02/12 09:11:49;;;;;;;8.63;6.77;;;;;;;1.62;100.00;102225.84;15326593;19;20179;-52
2022/02/12 09:16:54;;;;;;;8.80;6.33;;;;;;;1.72;100.00;102226.75;15311439;19;20162;-50
2022/02/12 09:21:58;;;;;;;7.43;6.00;;;;;;;1.85;100.00;102232.91;15340468;19;20179;-50
2022/02/12 09:27:02;;;;;;;11.00;6.40;;;;;;;1.97;100.00;102235.56;15340942;19;20145;-51
2022/02/12 09:32:07;;;;;;;7.90;5.67;;;;;;;2.11;100.00;102231.22;15342756;19;20212;-49
2022/02/12 09:37:12;;;;;;;6.50;4.87;;;;;;;2.23;100.00;102240.88;15252153;19;20164;-50
2022/02/12 09:42:17;;;;;;;6.60;5.20;;;;;;;2.35;100.00;102249.66;15269135;19;20652;-50
2022/02/12 09:47:41;;;;;;;7.73;5.30;;;;;;;2.42;100.00;102267.22;15280756;19;20165;-50
2022/02/12 09:52:49;;;;;;;7.87;5.50;;;;;;;2.50;100.00;102265.47;15281108;19;20164;-51
2022/02/12 09:57:53;;;;;;;9.43;6.33;;;;;;;2.68;100.00;102280.41;15257111;19;20181;-50
2022/02/12 10:02:58;;;;;;;7.27;6.47;;;;;;;2.72;100.00;102278.66;15259582;19;20234;-50
2022/02/12 10:08:07;;;;;;;7.33;6.47;;;;;;;2.85;100.00;102280.41;15278161;19;20187;-50
2022/02/12 10:13:14;;;;;;;10.97;6.47;;;;;;;2.91;100.00;102264.56;15279994;19;20240;-50
2022/02/12 10:18:22;;;;;;;10.83;8.80;;;;;;;3.00;100.00;102275.09;15267948;19;20302;-50
2022/02/12 10:23:34;;;;;;;11.40;6.93;;;;;;;3.11;100.00;102270.69;15252749;19;20182;-50
2022/02/12 10:28:45;;;;;;;8.07;5.70;;;;;;;3.10;100.00;102271.56;15275128;19;20152;-50
2022/02/12 10:33:53;;;;;;;7.03;5.97;;;;;;;3.19;100.00;102273.28;15279671;19;20168;-49
2022/02/12 10:38:58;;;;;;;17.50;13.97;;;;;;;3.40;100.00;102270.59;15278376;19;20162;-50
2022/02/12 10:44:02;;;;;;;12.07;10.30;;;;;;;3.42;100.00;102260.03;15252891;19;20608;-48
2022/02/12 10:49:08;;;;;;;11.17;9.97;;;;;;;3.54;100.00;102259.97;15266342;19;20193;-49
2022/02/12 10:54:13;;;;;;;7.80;6.60;;;;;;;3.94;100.00;102258.00;15280926;19;20158;-50
2022/02/12 10:59:23;;;;;;;11.60;10.40;;;;;;;4.53;100.00;102252.28;15279217;19;20633;-49
2022/02/12 11:04:28;;;;;;;8.20;7.37;;;;;;;4.87;100.00;102252.84;15261345;19;20164;-50
2022/02/12 11:09:35;;;;;;;7.47;5.77;;;;;;;5.00;100.00;102240.38;15254885;19;20168;-49
2022/02/12 11:14:40;;;;;;;14.17;11.90;;;;;;;4.62;100.00;102244.28;15276738;19;20282;-51
2022/02/12 11:19:46;;;;;;;8.93;8.03;;;;;;;4.41;100.00;102247.09;15276196;19;20175;-49
2022/02/12 11:24:50;;;;;;;8.13;7.33;;;;;;;4.34;100.00;102248.06;15267688;19;20589;-49
2022/02/12 11:29:56;;;;;;;5.90;5.30;;;;;;;4.34;100.00;102242.78;15252532;19;20145;-50
2022/02/12 11:35:09;;;;;;;3.93;3.10;;;;;;;4.22;100.00;102248.16;15272225;19;20272;-51
2022/02/12 11:40:28;;;;;;;5.87;3.50;;;;;;;4.27;100.00;102249.84;15276247;19;20156;-49
2022/02/12 11:45:41;;;;;;;5.13;3.17;;;;;;;4.38;100.00;102239.19;15272687;19;20164;-50
2022/02/12 11:51:12;;;;;;;4.13;3.53;;;;;;;4.41;100.00;102239.19;15249726;19;20148;-49
2022/02/12 11:56:16;;;;;;;6.07;5.33;;;;;;;4.37;100.00;102237.44;15258991;19;20183;-49
2022/02/12 12:01:24;;;;;;;5.70;3.40;;;;;;;4.36;100.00;102222.47;15273441;19;20191;-50
2022/02/12 12:06:29;;;;;;;5.17;3.93;;;;;;;4.38;100.00;102239.19;15269020;19;20732;-50
2022/02/12 12:11:33;;;;;;;9.47;4.87;;;;;;;4.28;100.00;102232.22;15259564;19;20151;-51
2022/02/12 12:16:54;;;;;;;3.67;2.80;;;;;;;4.25;100.00;102238.41;15247227;19;21043;-49
2022/02/12 12:22:06;;;;;;;7.90;3.90;;;;;;;4.45;100.00;102225.06;15271371;19;20527;-49
2022/02/12 12:27:12;;;;;;;6.03;2.90;;;;;;;4.60;100.00;102230.19;15276521;19;20710;-49
2022/02/12 12:32:19;;;;;;;7.17;3.20;;;;;;;4.65;100.00;102238.09;15269523;19;20141;-49
2022/02/12 12:37:26;;;;;;;9.67;4.23;;;;;;;4.68;100.00;102238.94;15250675;19;20151;-49
2022/02/12 12:42:34;;;;;;;3.60;2.50;;;;;;;4.82;100.00;102224.72;15260839;19;20152;-49
2022/02/12 12:47:38;;;;;;;5.50;3.17;;;;;;;4.83;100.00;102234.41;15269415;19;20157;-49
2022/02/12 12:52:43;;;;;;;5.77;3.30;;;;;;;4.84;100.00;102238.78;15273072;19;20160;-49
2022/02/12 12:57:48;;;;;;;11.57;5.03;;;;;;;4.78;100.00;102221.22;15241124;19;20160;-49
2022/02/12 13:02:54;;;;;;;6.70;3.70;;;;;;;4.81;100.00;102221.19;15251592;19;20276;-49
2022/02/12 13:08:04;;;;;;;7.20;4.20;;;;;;;4.72;100.00;102203.63;15266300;19;20137;-49
2022/02/12 13:13:18;;;;;;;3.90;2.40;;;;;;;4.68;100.00;102196.63;15278644;19;20144;-51
2022/02/12 13:18:23;;;;;;;4.27;2.70;;;;;;;4.59;100.00;102196.69;15267912;19;20576;-49
2022/02/12 13:23:28;;;;;;;7.10;2.80;;;;;;;4.56;100.00;102207.31;15254915;19;20177;-49
2022/02/12 13:28:35;;;;;;;9.97;4.90;;;;;;;4.57;100.00;102197.63;15279590;19;20159;-49
2022/02/12 13:33:40;;;;;;;7.97;3.70;;;;;;;4.55;100.00;102187.06;15280654;19;20165;-49
2022/02/12 13:38:44;;;;;;;5.57;3.00;;;;;;;4.61;100.00;102194.94;15279622;19;20148;-49
2022/02/12 13:43:50;;;;;;;5.53;2.40;;;;;;;4.71;100.00;102186.00;15253198;19;20153;-49
2022/02/12 13:48:54;;;;;;;8.43;4.40;;;;;;;4.66;100.00;102181.66;15268485;19;20165;-49
2022/02/12 13:53:59;;;;;;;4.87;3.27;;;;;;;4.61;100.00;102179.06;15277534;19;20156;-50
2022/02/12 13:59:03;;;;;;;3.73;2.80;;;;;;;4.53;100.00;102188.84;15278063;19;20141;-49
2022/02/12 14:04:08;;;;;;;5.03;2.67;;;;;;;4.42;100.00;102193.34;15257011;19;20179;-49
2022/02/12 14:09:16;;;;;;;3.13;2.73;;;;;;;4.48;100.00;102190.63;15261966;19;20203;-50
2022/02/12 14:14:21;;;;;;;3.83;2.77;;;;;;;4.42;100.00;102188.06;15275026;19;20156;-50
2022/02/12 14:19:26;;;;;;;3.70;3.30;;;;;;;4.39;100.00;102198.66;15277088;19;20141;-49
2022/02/12 14:24:32;;;;;;;4.67;2.80;;;;;;;4.25;100.00;102192.59;15264039;19;20173;-49
2022/02/12 14:53:00;;;;;;;4.97;4.10;;;;;;;3.80;100.00;102170.06;15251887;19;20566;-50
2022/02/12 14:58:05;;;;;;;5.73;4.20;;;;;;;3.69;100.00;102167.50;15289338;19;20876;-49
2022/02/12 15:03:09;;;;;;;5.93;4.40;;;;;;;3.54;100.00;102162.31;15285608;19;20169;-49
2022/02/12 15:08:14;;;;;;;5.83;4.50;;;;;;;3.39;100.00;102165.03;15287577;19;20226;-50
2022/02/12 15:13:18;;;;;;;11.30;6.77;;;;;;;3.15;100.00;102164.25;15291230;19;20140;-49
2022/02/12 15:18:23;;;;;;;18.53;11.17;;;;;;;2.90;100.00;102154.69;15291625;19;20234;-49
2022/02/12 15:23:28;;;;;;;25.37;15.23;;;;;;;2.69;100.00;102141.56;15250297;19;20158;-49
2022/02/12 15:28:32;;;;;;;13.53;9.10;;;;;;;2.42;100.00;102135.47;15256244;19;20150;-50
2022/02/12 15:33:37;;;;;;;8.07;6.40;;;;;;;2.18;100.00;102138.13;15270228;19;20710;-49
2022/02/12 15:38:42;;;;;;;10.83;8.67;;;;;;;1.90;100.00;102123.25;15267733;19;20169;-53
2022/02/12 15:43:47;;;;;;;11.60;10.27;;;;;;;1.57;100.00;102124.09;15264680;19;20185;-51
2022/02/12 15:48:51;;;;;;;11.90;10.70;;;;;;;1.30;100.00;102117.91;15245964;19;20158;-50
2022/02/12 15:53:56;;;;;;;10.40;8.73;;;;;;;1.01;100.00;102102.03;15264780;19;20201;-50
2022/02/12 15:59:00;;;;;;;9.90;6.40;;;;;;;0.79;100.00;102110.72;15263481;19;20232;-49
2022/02/12 16:04:05;;;;;;;10.37;6.53;;;;;;;0.55;100.00;102115.84;15271104;19;20557;-51
2022/02/12 16:09:09;;;;;;;15.47;9.00;;;;;;;0.33;100.00;102123.59;15248538;19;20142;-49
2022/02/12 16:14:14;;;;;;;18.07;11.37;;;;;;;0.09;100.00;102128.69;15258063;19;20149;-50
2022/02/12 16:24:17;;;;;;;14.50;9.80;;;;;;;-0.36;100.00;102119.53;15334565;19;20460;-49
2022/02/12 16:34:18;;;;;;;26.93;13.77;;;;;;;-0.69;100.00;102111.34;15309511;19;20503;-51
2022/02/12 16:39:23;;;;;;;21.83;13.90;;;;;;;-0.83;100.00;102111.19;15337233;19;20178;-49
2022/02/12 16:44:31;;;;;;;18.80;12.63;;;;;;;-0.94;100.00;102114.56;15346577;19;20152;-48
2022/02/12 16:49:39;;;;;;;18.27;12.20;;;;;;;-1.10;100.00;102106.53;15342681;19;20152;-49
2022/02/12 17:04:39;;;;;;;24.17;14.03;;;;;;;-1.41;100.00;102096.53;15337802;19;20505;-51
2022/02/12 17:14:42;;;;;;;22.60;12.87;;;;;;;-1.57;100.00;102090.19;15320459;19;20466;-49
2022/02/12 17:24:44;;;;;;;22.10;14.30;;;;;;;-1.63;100.00;102102.34;15335055;19;20504;-49
2022/02/12 17:29:49;;;;;;;20.90;14.57;;;;;;;-1.55;100.00;102106.81;15340915;19;20139;-48
2022/02/12 17:39:47;;;;;;;22.37;16.33;;;;;;;-1.40;100.00;102111.38;15167153;19;2889498;-49
2022/02/12 17:45:13;;;;;;;22.73;15.40;;;;;;;-1.30;100.00;102110.63;15339760;19;20634;-49
2022/02/12 18:00:13;;;;;;;32.77;20.07;;;;;;;-1.49;100.00;102090.31;15323475;19;20493;-49
2022/02/12 18:10:16;;;;;;;28.93;18.73;;;;;;;-1.66;100.00;102073.50;15343962;19;20460;-48
2022/02/12 18:15:22;;;;;;;33.60;20.03;;;;;;;-1.72;100.00;102062.94;15348757;19;20143;-50
2022/02/12 18:20:26;;;;;;;30.03;18.90;;;;;;;-1.78;100.00;102060.22;15343936;19;20148;-50
2022/02/12 18:30:27;;;;;;;29.93;18.23;;;;;;;-1.93;100.00;102072.22;15334564;19;20503;-49
2022/02/12 18:40:29;;;;;;;31.37;19.63;;;;;;;-0.39;100.00;102051.34;15343045;19;20491;-48
2022/02/12 18:55:49;;;;;;;24.30;16.23;;;;;;;-1.08;100.00;102057.63;15344430;19;20488;-50
2022/02/12 19:10:49;;;;;;;24.93;16.13;;;;;;;-1.42;100.00;102029.31;15315456;19;20465;-48
2022/02/12 19:15:54;;;;;;;27.93;17.37;;;;;;;-1.40;100.00;102038.06;15342538;19;20679;-49
2022/02/12 19:20:58;;;;;;;25.30;16.57;;;;;;;-1.40;100.00;102038.06;15348216;19;20164;-49
2022/02/12 19:26:03;;;;;;;24.13;16.00;;;;;;;-1.39;100.00;102038.94;15348133;19;20220;-49
2022/02/12 19:31:12;;;;;;;21.33;13.87;;;;;;;-1.42;100.00;102033.66;15321216;19;20155;-49
2022/02/12 19:36:23;;;;;;;22.13;13.87;;;;;;;-1.51;100.00;102034.44;15331749;19;20189;-49
2022/02/12 19:41:28;;;;;;;19.93;14.30;;;;;;;-1.62;100.00;102031.69;15347506;19;20216;-49
2022/02/12 19:46:32;;;;;;;19.80;13.53;;;;;;;-1.68;100.00;102025.47;15345277;19;20510;-49
2022/02/12 19:51:38;;;;;;;22.07;12.43;;;;;;;-1.77;100.00;102020.13;15332837;19;20627;-50
2022/02/12 20:06:35;;;;;;;19.43;12.57;;;;;;;-1.76;100.00;101990.47;15343712;19;20772;-49
2022/02/12 20:11:41;;;;;;;22.43;13.40;;;;;;;-1.78;100.00;101981.72;15342469;19;20148;-50
2022/02/12 20:21:43;;;;;;;25.47;15.57;;;;;;;-1.71;100.00;101968.75;15330520;19;20456;-49
2022/02/12 20:31:45;;;;;;;24.30;15.80;;;;;;;-1.81;100.00;101962.50;15344689;19;20442;-49
2022/02/12 20:36:51;;;;;;;25.27;16.00;;;;;;;-1.76;100.00;101973.06;15332409;19;20144;-49
2022/02/12 20:41:57;;;;;;;21.77;14.73;;;;;;;-1.86;100.00;101958.97;15322910;19;20621;-50
2022/02/12 20:51:56;;;;;;;27.57;16.17;;;;;;;-1.93;100.00;101951.88;15189786;19;2973432;-49
2022/02/12 21:01:57;;;;;;;24.43;14.93;;;;;;;-1.92;100.00;101953.66;15312902;19;20457;-49
2022/02/12 21:07:03;;;;;;;21.37;14.53;;;;;;;-1.96;100.00;101930.94;15337482;19;20164;-50
2022/02/12 21:26:57;;;;;;;22.43;15.10;;;;;;;-1.90;100.00;101924.91;15157323;19;2893060;-49
2022/02/12 21:32:01;;;;;;;21.67;13.90;;;;;;;-1.93;100.00;101925.72;15340662;19;20144;-49
2022/02/12 21:37:07;;;;;;;22.40;14.43;;;;;;;-1.91;100.00;101918.78;15339343;19;20194;-49
2022/02/12 21:52:10;;;;;;;23.13;14.77;;;;;;;-2.10;100.00;101910.69;15325443;19;20505;-48
2022/02/12 22:02:12;;;;;;;22.30;13.77;;;;;;;-2.22;100.00;101908.81;15336343;19;20501;-49
2022/02/12 22:12:13;;;;;;;20.30;12.87;;;;;;;-2.32;100.00;101899.09;15312356;19;20554;-50
2022/02/12 22:22:15;;;;;;;17.97;12.20;;;;;;;-2.28;100.00;101900.88;15336101;19;20495;-49
2022/02/12 22:27:20;;;;;;;19.67;11.70;;;;;;;-2.28;100.00;101900.88;15334550;19;20171;-50
2022/02/12 22:32:25;;;;;;;18.63;11.43;;;;;;;-2.30;100.00;101902.59;15313186;19;20147;-50
2022/02/12 22:37:29;;;;;;;20.40;12.83;;;;;;;-2.30;100.00;101897.38;15331738;19;20156;-50
2022/02/12 22:47:31;;;;;;;21.97;13.20;;;;;;;-2.26;100.00;101883.47;15319297;19;20657;-49
2022/02/12 22:52:36;;;;;;;20.27;12.60;;;;;;;-2.25;100.00;101880.00;15317994;19;20136;-50
2022/02/12 22:57:41;;;;;;;18.07;11.50;;;;;;;-2.25;100.00;101891.34;15327029;19;20853;-50
2022/02/12 23:12:41;;;;;;;21.03;13.40;;;;;;;-2.35;100.00;101886.84;15329254;19;20508;-49
2022/02/12 23:17:46;;;;;;;20.80;12.83;;;;;;;-2.39;100.00;101881.53;15320021;19;20244;-50
2022/02/12 23:22:50;;;;;;;21.23;13.50;;;;;;;-2.46;100.00;101870.13;15338679;19;20566;-49
2022/02/12 23:27:54;;;;;;;23.40;13.53;;;;;;;-2.55;100.00;101865.69;15340901;19;20497;-50
2022/02/12 23:32:59;;;;;;;24.03;14.73;;;;;;;-2.63;100.00;101862.06;15341886;19;20152;-49
2022/02/12 23:38:03;;;;;;;26.10;15.03;;;;;;;-2.70;100.00;101860.22;15315743;19;20231;-49
2022/02/12 23:43:08;;;;;;;24.27;15.00;;;;;;;-2.76;100.00;101859.25;15329620;19;20152;-50
2022/02/12 23:48:13;;;;;;;23.70;13.93;;;;;;;-2.82;100.00;101859.16;15340986;19;20207;-49
2022/02/12 23:58:16;;;;;;;18.47;12.73;;;;;;;-2.95;100.00;101843.31;15322752;19;20467;-49
